createdAt,value
2018-08-30T00:02:14.475Z,20.70
2018-08-30T00:05:19.237Z,20.70
2018-08-30T00:08:23.703Z,20.70
2018-08-30T00:11:28.140Z,20.70
2018-08-30T00:14:32.752Z,20.60
2018-08-30T00:17:37.179Z,20.50
2018-08-30T00:20:41.700Z,20.40
2018-08-30T00:23:46.165Z,20.40
2018-08-30T00:26:50.586Z,20.40
2018-08-30T00:29:55.025Z,20.40
2018-08-30T00:32:59.441Z,20.40
2018-08-30T00:36:03.935Z,20.40
2018-08-30T00:39:10.102Z,20.40
2018-08-30T00:42:14.534Z,20.30
2018-08-30T00:45:18.998Z,20.20
2018-08-30T00:48:23.422Z,20.10
2018-08-30T00:51:27.886Z,20.10
2018-08-30T00:54:32.341Z,20.10
2018-08-30T00:57:36.777Z,20.10
2018-08-30T01:00:41.325Z,20.00
2018-08-30T01:03:45.788Z,20.10
2018-08-30T01:06:50.241Z,20.00
2018-08-30T01:09:54.691Z,20.00
2018-08-30T01:12:59.148Z,20.00
2018-08-30T01:16:03.597Z,20.00
2018-08-30T01:19:08.050Z,20.00
2018-08-30T01:22:12.570Z,19.90
2018-08-30T01:25:17.017Z,19.80
2018-08-30T01:28:21.437Z,19.80
2018-08-30T01:31:25.910Z,19.80
2018-08-30T01:34:30.389Z,19.80
2018-08-30T01:37:34.845Z,19.80
2018-08-30T01:40:39.290Z,19.70
2018-08-30T01:43:43.895Z,19.80
2018-08-30T01:46:48.329Z,19.80
2018-08-30T01:49:52.842Z,19.70
2018-08-30T01:52:57.293Z,19.70
2018-08-30T01:56:01.764Z,19.70
2018-08-30T01:59:06.218Z,19.70
2018-08-30T02:02:10.957Z,19.60
2018-08-30T02:05:15.386Z,19.60
2018-08-30T02:08:19.824Z,19.50
2018-08-30T02:11:24.297Z,19.50
2018-08-30T02:14:28.758Z,19.40
2018-08-30T02:17:33.273Z,19.30
2018-08-30T02:20:37.719Z,19.20
2018-08-30T02:23:42.168Z,19.20
2018-08-30T02:26:46.605Z,19.20
2018-08-30T02:29:51.026Z,19.20
2018-08-30T02:32:55.502Z,19.20
2018-08-30T02:35:59.925Z,19.20
2018-08-30T02:39:05.006Z,19.00
2018-08-30T02:42:09.417Z,19.00
2018-08-30T02:45:13.817Z,18.90
2018-08-30T02:48:18.245Z,18.90
2018-08-30T02:51:22.645Z,18.80
2018-08-30T02:54:27.097Z,18.80
2018-08-30T02:57:31.519Z,18.80
2018-08-30T03:00:35.927Z,18.80
2018-08-30T03:03:40.370Z,18.80
2018-08-30T03:06:44.763Z,18.80
2018-08-30T03:09:49.175Z,18.80
2018-08-30T03:12:53.598Z,18.80
2018-08-30T03:15:58.033Z,18.70
2018-08-30T03:19:02.501Z,18.60
2018-08-30T03:22:06.940Z,18.50
2018-08-30T03:25:11.391Z,18.50
2018-08-30T03:28:15.813Z,18.50
2018-08-30T03:31:20.229Z,18.40
2018-08-30T03:34:24.778Z,18.40
2018-08-30T03:37:29.357Z,18.40
2018-08-30T03:40:33.786Z,18.40
2018-08-30T03:43:38.221Z,18.40
2018-08-30T03:46:42.650Z,18.40
2018-08-30T03:49:47.068Z,18.40
2018-08-30T03:52:51.526Z,18.40
2018-08-30T03:55:55.950Z,18.40
2018-08-30T03:59:00.374Z,18.30
2018-08-30T04:02:04.872Z,18.20
2018-08-30T04:05:09.319Z,18.20
2018-08-30T04:08:13.847Z,18.20
2018-08-30T04:11:18.267Z,18.10
2018-08-30T04:14:22.697Z,18.20
2018-08-30T04:17:27.384Z,18.20
2018-08-30T04:20:31.818Z,18.20
2018-08-30T04:23:36.234Z,18.20
2018-08-30T04:26:40.694Z,18.30
2018-08-30T04:29:45.120Z,18.30
2018-08-30T04:32:49.590Z,18.40
2018-08-30T04:35:54.038Z,18.40
2018-08-30T04:38:58.900Z,18.40
2018-08-30T04:42:03.326Z,18.40
2018-08-30T04:45:08.126Z,18.40
2018-08-30T04:48:12.579Z,18.40
2018-08-30T04:51:17.013Z,18.40
2018-08-30T04:54:21.406Z,18.30
2018-08-30T04:57:25.882Z,18.20
2018-08-30T05:00:30.335Z,18.20
2018-08-30T05:03:34.754Z,18.30
2018-08-30T05:06:39.173Z,18.30
2018-08-30T05:09:43.582Z,18.40
2018-08-30T05:12:48.027Z,18.40
2018-08-30T05:15:52.445Z,18.30
2018-08-30T05:18:56.869Z,18.30
2018-08-30T05:22:01.385Z,18.20
2018-08-30T05:25:04.881Z,18.20
2018-08-30T05:28:09.741Z,18.30
2018-08-30T05:31:14.204Z,18.20
2018-08-30T05:34:18.646Z,18.20
2018-08-30T05:37:23.067Z,18.20
2018-08-30T05:40:27.475Z,18.20
2018-08-30T05:43:31.914Z,18.20
2018-08-30T05:46:36.338Z,18.10
2018-08-30T05:49:40.746Z,18.10
2018-08-30T05:52:45.213Z,18.10
2018-08-30T05:55:49.683Z,18.10
2018-08-30T05:58:54.130Z,18.10
2018-08-30T06:01:58.560Z,18.00
2018-08-30T06:05:03.052Z,18.00
2018-08-30T06:08:07.582Z,18.00
2018-08-30T06:11:12.000Z,17.90
2018-08-30T06:14:16.438Z,18.00
2018-08-30T06:17:20.856Z,18.10
2018-08-30T06:20:25.257Z,18.10
2018-08-30T06:23:29.698Z,18.10
2018-08-30T06:26:34.099Z,18.10
2018-08-30T06:29:38.549Z,18.10
2018-08-30T06:32:43.041Z,18.10
2018-08-30T06:35:47.503Z,17.90
2018-08-30T06:38:52.182Z,17.90
2018-08-30T06:41:56.526Z,17.90
2018-08-30T06:45:00.987Z,17.90
2018-08-30T06:48:05.470Z,17.80
2018-08-30T06:51:09.941Z,17.80
2018-08-30T06:54:14.431Z,17.70
2018-08-30T06:57:18.898Z,17.60
2018-08-30T07:00:23.340Z,17.50
2018-08-30T07:03:27.786Z,17.60
2018-08-30T07:06:32.317Z,17.40
2018-08-30T07:09:36.791Z,17.50
2018-08-30T07:12:41.263Z,17.50
2018-08-30T07:15:45.718Z,17.60
2018-08-30T07:18:50.195Z,17.70
2018-08-30T07:21:54.668Z,17.80
2018-08-30T07:24:59.143Z,17.90
2018-08-30T07:28:03.609Z,18.00
2018-08-30T07:31:08.154Z,18.00
2018-08-30T07:34:12.662Z,18.00
2018-08-30T07:37:17.033Z,18.10
2018-08-30T07:40:21.483Z,18.00
2018-08-30T07:43:26.039Z,18.00
2018-08-30T07:46:30.474Z,18.10
2018-08-30T07:49:34.922Z,18.30
2018-08-30T07:52:39.353Z,18.50
2018-08-30T07:55:43.793Z,18.60
2018-08-30T07:58:48.233Z,18.70
2018-08-30T08:01:52.694Z,18.70
2018-08-30T08:04:57.218Z,18.70
2018-08-30T08:08:01.748Z,18.70
2018-08-30T08:11:07.009Z,18.60
2018-08-30T08:14:18.037Z,18.60
2018-08-30T08:17:22.790Z,18.60
2018-08-30T08:20:27.244Z,18.70
2018-08-30T08:23:31.691Z,18.70
2018-08-30T08:26:36.114Z,18.80
2018-08-30T08:29:40.587Z,18.80
2018-08-30T08:32:45.046Z,18.80
2018-08-30T08:35:49.558Z,18.80
2018-08-30T08:38:54.011Z,18.80
2018-08-30T08:41:58.521Z,18.80
2018-08-30T08:45:03.012Z,18.70
2018-08-30T08:48:07.623Z,18.70
2018-08-30T08:51:12.185Z,18.70
2018-08-30T08:54:16.799Z,18.90
2018-08-30T08:57:21.239Z,19.00
2018-08-30T09:00:25.756Z,19.10
2018-08-30T09:03:30.202Z,19.30
2018-08-30T09:06:34.693Z,19.40
2018-08-30T09:09:39.210Z,19.40
2018-08-30T09:12:44.243Z,19.40
2018-08-30T09:15:49.256Z,19.30
2018-08-30T09:18:53.723Z,19.30
2018-08-30T09:21:58.749Z,19.30
2018-08-30T09:25:03.845Z,19.70
2018-08-30T09:28:09.907Z,20.10
2018-08-30T09:31:14.967Z,20.60
2018-08-30T09:34:19.916Z,21.00
2018-08-30T09:37:24.402Z,21.10
2018-08-30T09:40:28.889Z,21.00
2018-08-30T09:43:33.376Z,20.80
2018-08-30T09:46:37.874Z,20.70
2018-08-30T09:49:42.352Z,20.50
2018-08-30T09:52:46.789Z,20.50
2018-08-30T09:55:51.290Z,20.90
2018-08-30T09:58:56.356Z,21.30
2018-08-30T10:02:03.370Z,21.70
2018-08-30T10:05:08.196Z,22.30
2018-08-30T10:08:13.441Z,22.50
2018-08-30T10:11:17.915Z,22.70
2018-08-30T10:14:22.366Z,22.60
2018-08-30T10:17:26.892Z,22.30
2018-08-30T10:20:31.414Z,22.10
2018-08-30T10:23:35.915Z,21.70
2018-08-30T10:26:40.525Z,21.40
2018-08-30T10:29:44.945Z,21.20
2018-08-30T10:32:49.393Z,21.30
2018-08-30T10:35:53.879Z,21.30
2018-08-30T10:38:58.364Z,21.40
2018-08-30T10:42:02.892Z,21.30
2018-08-30T10:45:07.569Z,21.20
2018-08-30T10:48:12.005Z,21.10
2018-08-30T10:51:16.506Z,21.10
2018-08-30T10:54:20.942Z,21.30
2018-08-30T10:57:25.478Z,21.70
2018-08-30T11:00:31.594Z,21.90
2018-08-30T11:03:36.118Z,21.90
2018-08-30T11:06:40.614Z,21.70
2018-08-30T11:09:45.034Z,21.60
2018-08-30T11:12:49.505Z,21.70
2018-08-30T11:15:53.906Z,22.10
2018-08-30T11:18:58.422Z,22.60
2018-08-30T11:22:02.863Z,22.90
2018-08-30T11:25:07.322Z,22.90
2018-08-30T11:28:11.986Z,22.80
2018-08-30T11:31:16.563Z,22.60
2018-08-30T11:34:21.035Z,22.40
2018-08-30T11:37:25.584Z,22.50
2018-08-30T11:40:30.175Z,22.60
2018-08-30T11:43:34.743Z,22.60
2018-08-30T11:46:39.266Z,22.70
2018-08-30T11:49:43.790Z,23.20
2018-08-30T11:52:48.385Z,23.60
2018-08-30T11:55:52.900Z,23.90
2018-08-30T11:58:57.370Z,24.30
2018-08-30T12:02:02.082Z,24.50
2018-08-30T12:05:07.108Z,24.30
2018-08-30T12:08:11.566Z,24.40
2018-08-30T12:11:19.088Z,24.50
2018-08-30T12:14:23.420Z,24.80
2018-08-30T12:17:27.926Z,24.70
2018-08-30T12:20:32.400Z,24.50
2018-08-30T12:23:36.852Z,24.10
2018-08-30T12:26:41.300Z,23.70
2018-08-30T12:29:45.764Z,23.70
2018-08-30T12:32:50.228Z,24.00
2018-08-30T12:35:54.955Z,24.10
2018-08-30T12:38:59.342Z,24.20
2018-08-30T12:42:05.407Z,24.30
2018-08-30T12:45:09.922Z,24.30
2018-08-30T12:48:14.360Z,24.00
2018-08-30T12:51:18.976Z,24.00
2018-08-30T12:54:23.404Z,24.10
2018-08-30T12:57:27.795Z,24.20
2018-08-30T13:00:32.366Z,24.00
2018-08-30T13:03:36.959Z,23.70
2018-08-30T13:06:46.102Z,23.50
2018-08-30T13:09:50.405Z,23.20
2018-08-30T13:12:54.864Z,23.20
2018-08-30T13:15:59.412Z,23.30
2018-08-30T13:19:03.777Z,23.70
2018-08-30T13:22:08.639Z,24.10
2018-08-30T13:25:13.009Z,24.40
2018-08-30T13:28:17.386Z,24.50
2018-08-30T13:31:21.841Z,24.30
2018-08-30T13:34:26.424Z,24.10
2018-08-30T13:37:30.915Z,24.10
2018-08-30T13:40:35.486Z,24.00
2018-08-30T13:43:39.905Z,24.20
2018-08-30T13:46:44.456Z,24.40
2018-08-30T13:49:48.613Z,24.70
2018-08-30T13:52:52.947Z,24.90
2018-08-30T13:55:57.430Z,25.00
2018-08-30T13:59:02.134Z,25.10
2018-08-30T14:02:06.294Z,25.30
2018-08-30T14:05:10.926Z,25.40
2018-08-30T14:08:15.363Z,25.50
2018-08-30T14:11:19.768Z,25.70
2018-08-30T14:14:24.108Z,25.80
2018-08-30T14:17:28.321Z,25.70
2018-08-30T14:20:32.750Z,25.60
2018-08-30T14:23:37.173Z,25.70
2018-08-30T14:26:41.633Z,25.80
2018-08-30T14:29:46.099Z,25.90
2018-08-30T14:32:50.615Z,25.90
2018-08-30T14:35:54.999Z,25.80
2018-08-30T14:38:59.586Z,25.70
2018-08-30T14:42:03.950Z,25.80
2018-08-30T14:45:08.426Z,25.60
2018-08-30T14:48:12.959Z,25.10
2018-08-30T14:51:17.441Z,24.80
2018-08-30T14:54:21.926Z,24.60
2018-08-30T14:57:26.414Z,24.60
2018-08-30T15:00:30.885Z,24.50
2018-08-30T15:03:35.322Z,24.50
2018-08-30T15:06:39.820Z,24.40
2018-08-30T15:09:44.522Z,24.50
2018-08-30T15:12:49.340Z,24.50
2018-08-30T15:15:53.694Z,24.50
2018-08-30T15:18:58.154Z,24.70
2018-08-30T15:22:02.569Z,24.80
2018-08-30T15:25:07.205Z,24.80
2018-08-30T15:28:11.687Z,24.80
2018-08-30T15:31:16.137Z,24.70
2018-08-30T15:34:20.777Z,24.50
2018-08-30T15:37:25.129Z,24.10
2018-08-30T15:40:29.586Z,23.90
2018-08-30T15:43:34.034Z,23.70
2018-08-30T15:46:38.490Z,23.50
2018-08-30T15:49:42.955Z,23.30
2018-08-30T15:52:47.389Z,23.10
2018-08-30T15:55:51.829Z,22.80
2018-08-30T15:58:56.347Z,22.60
2018-08-30T16:02:00.875Z,22.40
2018-08-30T16:05:05.404Z,22.30
2018-08-30T16:08:09.806Z,22.10
2018-08-30T16:11:14.299Z,21.90
2018-08-30T16:14:18.734Z,21.70
2018-08-30T16:17:23.527Z,21.50
2018-08-30T16:20:27.916Z,21.30
2018-08-30T16:23:33.770Z,21.10
2018-08-30T16:26:38.246Z,21.10
2018-08-30T16:29:42.753Z,20.90
2018-08-30T16:32:47.234Z,20.80
2018-08-30T16:35:51.822Z,20.80
2018-08-30T16:38:56.314Z,20.70
2018-08-30T16:42:00.793Z,20.60
2018-08-30T16:45:05.248Z,20.60
2018-08-30T16:48:09.754Z,20.50
2018-08-30T16:51:14.223Z,20.50
2018-08-30T16:54:18.765Z,20.40
2018-08-30T16:57:23.222Z,20.40
2018-08-30T17:00:27.926Z,20.30
2018-08-30T17:03:32.395Z,20.30
2018-08-30T17:06:36.980Z,20.30
2018-08-30T17:09:41.387Z,20.40
2018-08-30T17:12:45.893Z,20.30
2018-08-30T17:15:50.391Z,20.20
2018-08-30T17:19:00.694Z,20.20
2018-08-30T17:22:05.202Z,20.20
2018-08-30T17:25:09.676Z,20.20
2018-08-30T17:28:14.182Z,20.10
2018-08-30T17:31:18.791Z,20.10
2018-08-30T17:34:23.088Z,20.00
2018-08-30T17:37:27.496Z,19.90
2018-08-30T17:40:31.995Z,19.90
2018-08-30T17:43:36.576Z,19.80
2018-08-30T17:46:41.062Z,19.70
2018-08-30T17:49:45.610Z,19.60
2018-08-30T17:52:50.610Z,19.60
2018-08-30T17:56:01.964Z,19.50
2018-08-30T17:59:06.584Z,19.50
2018-08-30T18:02:10.978Z,19.40
2018-08-30T18:05:15.881Z,19.30
2018-08-30T18:08:20.442Z,19.30
2018-08-30T18:11:25.275Z,19.30
2018-08-30T18:14:29.721Z,19.30
2018-08-30T18:17:34.153Z,19.40
2018-08-30T18:20:38.606Z,19.30
2018-08-30T18:23:43.043Z,19.30
2018-08-30T18:26:47.586Z,19.30
2018-08-30T18:29:52.110Z,19.30
2018-08-30T18:32:56.550Z,19.30
2018-08-30T18:36:01.024Z,19.40
2018-08-30T18:39:08.807Z,19.30
2018-08-30T18:42:13.393Z,19.20
2018-08-30T18:45:17.917Z,19.10
2018-08-30T18:48:22.438Z,19.10
2018-08-30T18:51:26.947Z,19.00
2018-08-30T18:54:31.472Z,19.00
2018-08-30T18:57:36.030Z,18.90
2018-08-30T19:00:40.522Z,18.80
2018-08-30T19:03:45.000Z,18.70
2018-08-30T19:06:50.012Z,18.60
2018-08-30T19:09:54.635Z,18.60
2018-08-30T19:12:59.170Z,18.60
2018-08-30T19:16:08.997Z,18.60
2018-08-30T19:19:21.573Z,18.60
2018-08-30T19:22:26.114Z,18.60
2018-08-30T19:25:30.978Z,18.60
2018-08-30T19:28:35.450Z,18.50
2018-08-30T19:31:39.992Z,18.30
2018-08-30T19:34:44.461Z,18.10
2018-08-30T19:37:49.222Z,18.00
2018-08-30T19:40:58.851Z,17.80
2018-08-30T19:44:03.308Z,17.60
2018-08-30T19:47:07.777Z,17.50
2018-08-30T19:50:12.301Z,17.50
2018-08-30T19:53:16.775Z,17.60
2018-08-30T19:56:21.278Z,17.60
2018-08-30T19:59:25.729Z,17.60
2018-08-30T20:02:30.229Z,17.60
2018-08-30T20:05:34.737Z,17.60
2018-08-30T20:08:39.201Z,17.70
2018-08-30T20:11:43.742Z,17.60
2018-08-30T20:14:48.453Z,17.60
2018-08-30T20:17:52.938Z,17.60
2018-08-30T20:20:57.621Z,17.50
2018-08-30T20:24:02.063Z,17.50
2018-08-30T20:27:06.563Z,17.40
2018-08-30T20:30:17.777Z,17.30
2018-08-30T20:33:22.229Z,17.30
2018-08-30T20:36:26.663Z,17.30
2018-08-30T20:39:31.077Z,17.10
2018-08-30T20:42:35.506Z,17.10
2018-08-30T20:45:40.012Z,17.00
2018-08-30T20:48:44.515Z,17.00
2018-08-30T20:51:48.992Z,17.00
2018-08-30T20:54:53.541Z,17.00
2018-08-30T20:57:57.998Z,16.90
2018-08-30T21:01:02.430Z,16.90
2018-08-30T21:04:06.982Z,16.90
2018-08-30T21:07:11.412Z,16.90
2018-08-30T21:10:15.887Z,16.80
2018-08-30T21:13:21.289Z,16.70
2018-08-30T21:16:25.751Z,16.60
2018-08-30T21:19:30.211Z,16.50
2018-08-30T21:22:36.058Z,16.50
2018-08-30T21:25:41.086Z,16.50
2018-08-30T21:28:46.395Z,16.60
2018-08-30T21:31:50.841Z,16.50
2018-08-30T21:34:55.326Z,16.50
2018-08-30T21:37:59.782Z,16.50
2018-08-30T21:41:04.186Z,16.40
2018-08-30T21:44:08.670Z,16.40
2018-08-30T21:47:13.089Z,16.30
2018-08-30T21:50:17.589Z,16.30
2018-08-30T21:53:22.143Z,16.30
2018-08-30T21:56:26.574Z,16.30
2018-08-30T21:59:31.010Z,16.40
2018-08-30T22:02:35.504Z,16.40
2018-08-30T22:05:39.905Z,16.50
2018-08-30T22:08:44.370Z,16.60
2018-08-30T22:11:48.789Z,16.70
2018-08-30T22:14:53.238Z,16.80
2018-08-30T22:17:57.660Z,16.80
2018-08-30T22:21:02.186Z,16.90
2018-08-30T22:24:06.810Z,16.90
2018-08-30T22:27:11.249Z,16.90
2018-08-30T22:30:15.760Z,16.90
2018-08-30T22:33:20.218Z,17.00
2018-08-30T22:36:24.742Z,16.90
2018-08-30T22:39:29.293Z,16.80
2018-08-30T22:42:33.901Z,16.80
2018-08-30T22:45:38.330Z,16.70
2018-08-30T22:48:42.770Z,16.70
2018-08-30T22:51:47.177Z,16.70
2018-08-30T22:54:51.614Z,16.70
2018-08-30T22:57:56.086Z,16.80
2018-08-30T23:01:00.603Z,16.80
2018-08-30T23:04:05.046Z,16.80
2018-08-30T23:07:09.470Z,16.80
2018-08-30T23:10:13.896Z,16.80
2018-08-30T23:13:18.313Z,16.90
2018-08-30T23:16:22.753Z,17.00
2018-08-30T23:19:27.269Z,17.00
2018-08-30T23:22:31.718Z,17.00
2018-08-30T23:25:36.203Z,17.10
2018-08-30T23:28:40.664Z,17.20
2018-08-30T23:31:45.090Z,17.30
2018-08-30T23:34:49.646Z,17.30
2018-08-30T23:37:54.361Z,17.20
2018-08-30T23:40:58.802Z,17.20
2018-08-30T23:44:03.206Z,17.20
2018-08-30T23:47:07.652Z,17.20
2018-08-30T23:50:12.104Z,17.30
2018-08-30T23:53:16.546Z,17.20
2018-08-30T23:56:21.039Z,17.30
2018-08-30T23:59:42.391Z,17.30
